sensor_id;sensor_type;location;lat;lon;timestamp;pressure;altitude;pressure_sealevel;temperature
9119;BMP180;4594;50.994;7.126;2023-05-29T00:00:07;101045.00;;;20.60
9119;BMP180;4594;50.994;7.126;2023-05-29T00:02:36;101030.00;;;20.50
9119;BMP180;4594;50.994;7.126;2023-05-29T00:05:02;101034.00;;;20.50
9119;BMP180;4594;50.994;7.126;2023-05-29T00:07:31;101045.00;;;20.50
9119;BMP180;4594;50.994;7.126;2023-05-29T00:09:58;101038.00;;;20.40
9119;BMP180;4594;50.994;7.126;2023-05-29T00:12:24;101047.00;;;20.40
9119;BMP180;4594;50.994;7.126;2023-05-29T00:14:50;101032.00;;;20.30
9119;BMP180;4594;50.994;7.126;2023-05-29T00:17:16;101001.00;;;20.30
9119;BMP180;4594;50.994;7.126;2023-05-29T00:19:43;101057.00;;;20.30
9119;BMP180;4594;50.994;7.126;2023-05-29T00:22:09;101052.00;;;20.20
9119;BMP180;4594;50.994;7.126;2023-05-29T00:24:35;101051.00;;;20.20
9119;BMP180;4594;50.994;7.126;2023-05-29T00:27:01;101045.00;;;20.20
9119;BMP180;4594;50.994;7.126;2023-05-29T00:29:27;101073.00;;;20.20
9119;BMP180;4594;50.994;7.126;2023-05-29T00:31:53;101078.00;;;20.10
9119;BMP180;4594;50.994;7.126;2023-05-29T00:34:23;101088.00;;;20.10
9119;BMP180;4594;50.994;7.126;2023-05-29T00:36:49;101081.00;;;20.10
9119;BMP180;4594;50.994;7.126;2023-05-29T00:39:15;101064.00;;;20.00
9119;BMP180;4594;50.994;7.126;2023-05-29T00:41:41;101089.00;;;20.00
9119;BMP180;4594;50.994;7.126;2023-05-29T00:44:06;101085.00;;;20.00
9119;BMP180;4594;50.994;7.126;2023-05-29T00:46:33;101069.00;;;19.90
9119;BMP180;4594;50.994;7.126;2023-05-29T00:49:00;101051.00;;;19.90
9119;BMP180;4594;50.994;7.126;2023-05-29T00:51:28;101074.00;;;19.90
9119;BMP180;4594;50.994;7.126;2023-05-29T00:53:55;101064.00;;;19.80
9119;BMP180;4594;50.994;7.126;2023-05-29T00:56:23;101066.00;;;19.80
9119;BMP180;4594;50.994;7.126;2023-05-29T00:58:51;101076.00;;;19.70
9119;BMP180;4594;50.994;7.126;2023-05-29T01:01:21;101070.00;;;19.70
9119;BMP180;4594;50.994;7.126;2023-05-29T01:03:47;101069.00;;;19.60
9119;BMP180;4594;50.994;7.126;2023-05-29T01:06:14;101090.00;;;19.60
9119;BMP180;4594;50.994;7.126;2023-05-29T01:08:40;101083.00;;;19.60
9119;BMP180;4594;50.994;7.126;2023-05-29T01:11:36;101089.00;;;19.50
9119;BMP180;4594;50.994;7.126;2023-05-29T01:14:10;101090.00;;;19.50
9119;BMP180;4594;50.994;7.126;2023-05-29T01:16:53;101081.00;;;19.40
9119;BMP180;4594;50.994;7.126;2023-05-29T01:28:26;101070.00;;;19.20
9119;BMP180;4594;50.994;7.126;2023-05-29T01:30:54;101078.00;;;19.20
9119;BMP180;4594;50.994;7.126;2023-05-29T01:33:22;101088.00;;;19.20
9119;BMP180;4594;50.994;7.126;2023-05-29T01:35:48;101095.00;;;19.10
9119;BMP180;4594;50.994;7.126;2023-05-29T01:38:14;101089.00;;;19.10
9119;BMP180;4594;50.994;7.126;2023-05-29T01:40:39;101101.00;;;19.10
9119;BMP180;4594;50.994;7.126;2023-05-29T01:43:07;101101.00;;;19.10
9119;BMP180;4594;50.994;7.126;2023-05-29T01:45:34;101119.00;;;19.00
9119;BMP180;4594;50.994;7.126;2023-05-29T01:48:00;101107.00;;;19.00
9119;BMP180;4594;50.994;7.126;2023-05-29T01:50:27;101081.00;;;19.00
9119;BMP180;4594;50.994;7.126;2023-05-29T01:52:54;101102.00;;;18.90
9119;BMP180;4594;50.994;7.126;2023-05-29T01:55:19;101112.00;;;18.90
9119;BMP180;4594;50.994;7.126;2023-05-29T01:57:46;101120.00;;;18.90
9119;BMP180;4594;50.994;7.126;2023-05-29T02:00:15;101125.00;;;18.90
9119;BMP180;4594;50.994;7.126;2023-05-29T02:02:42;101129.00;;;18.80
9119;BMP180;4594;50.994;7.126;2023-05-29T02:05:10;101129.00;;;18.80
9119;BMP180;4594;50.994;7.126;2023-05-29T02:07:36;101125.00;;;18.70
9119;BMP180;4594;50.994;7.126;2023-05-29T02:10:04;101130.00;;;18.70
9119;BMP180;4594;50.994;7.126;2023-05-29T02:12:29;101139.00;;;18.60
9119;BMP180;4594;50.994;7.126;2023-05-29T02:14:55;101127.00;;;18.60
9119;BMP180;4594;50.994;7.126;2023-05-29T02:17:22;101123.00;;;18.50
9119;BMP180;4594;50.994;7.126;2023-05-29T02:19:48;101135.00;;;18.50
9119;BMP180;4594;50.994;7.126;2023-05-29T02:22:14;101134.00;;;18.50
9119;BMP180;4594;50.994;7.126;2023-05-29T02:24:39;101134.00;;;18.40
9119;BMP180;4594;50.994;7.126;2023-05-29T02:27:05;101129.00;;;18.40
9119;BMP180;4594;50.994;7.126;2023-05-29T02:29:30;101138.00;;;18.30
9119;BMP180;4594;50.994;7.126;2023-05-29T02:31:56;101147.00;;;18.30
9119;BMP180;4594;50.994;7.126;2023-05-29T02:34:22;101147.00;;;18.20
9119;BMP180;4594;50.994;7.126;2023-05-29T02:36:49;101160.00;;;18.20
9119;BMP180;4594;50.994;7.126;2023-05-29T02:39:15;101161.00;;;18.20
9119;BMP180;4594;50.994;7.126;2023-05-29T02:41:40;101153.00;;;18.10
9119;BMP180;4594;50.994;7.126;2023-05-29T02:44:06;101147.00;;;18.10
9119;BMP180;4594;50.994;7.126;2023-05-29T02:46:32;101147.00;;;18.00
9119;BMP180;4594;50.994;7.126;2023-05-29T02:48:57;101146.00;;;18.00
9119;BMP180;4594;50.994;7.126;2023-05-29T02:51:23;101141.00;;;18.00
9119;BMP180;4594;50.994;7.126;2023-05-29T02:53:49;101146.00;;;17.90
9119;BMP180;4594;50.994;7.126;2023-05-29T02:56:14;101150.00;;;17.90
9119;BMP180;4594;50.994;7.126;2023-05-29T02:58:42;101128.00;;;17.80
9119;BMP180;4594;50.994;7.126;2023-05-29T03:01:08;101139.00;;;17.80
9119;BMP180;4594;50.994;7.126;2023-05-29T03:03:33;101144.00;;;17.70
9119;BMP180;4594;50.994;7.126;2023-05-29T03:05:59;101149.00;;;17.70
9119;BMP180;4594;50.994;7.126;2023-05-29T03:08:26;101146.00;;;17.70
9119;BMP180;4594;50.994;7.126;2023-05-29T03:10:54;101139.00;;;17.60
9119;BMP180;4594;50.994;7.126;2023-05-29T03:13:20;101146.00;;;17.60
9119;BMP180;4594;50.994;7.126;2023-05-29T03:15:46;101146.00;;;17.60
9119;BMP180;4594;50.994;7.126;2023-05-29T03:18:12;101154.00;;;17.50
9119;BMP180;4594;50.994;7.126;2023-05-29T03:20:38;101158.00;;;17.50
9119;BMP180;4594;50.994;7.126;2023-05-29T03:23:04;101156.00;;;17.40
9119;BMP180;4594;50.994;7.126;2023-05-29T03:25:29;101163.00;;;17.40
9119;BMP180;4594;50.994;7.126;2023-05-29T03:27:55;101164.00;;;17.40
9119;BMP180;4594;50.994;7.126;2023-05-29T03:30:21;101164.00;;;17.30
9119;BMP180;4594;50.994;7.126;2023-05-29T03:32:46;101159.00;;;17.30
9119;BMP180;4594;50.994;7.126;2023-05-29T03:35:12;101154.00;;;17.30
9119;BMP180;4594;50.994;7.126;2023-05-29T03:37:38;101159.00;;;17.30
9119;BMP180;4594;50.994;7.126;2023-05-29T03:40:04;101164.00;;;17.20
9119;BMP180;4594;50.994;7.126;2023-05-29T03:42:30;101164.00;;;17.20
9119;BMP180;4594;50.994;7.126;2023-05-29T03:44:56;101164.00;;;17.20
9119;BMP180;4594;50.994;7.126;2023-05-29T03:47:22;101178.00;;;17.20
9119;BMP180;4594;50.994;7.126;2023-05-29T03:49:48;101167.00;;;17.10
9119;BMP180;4594;50.994;7.126;2023-05-29T03:52:14;101162.00;;;17.10
9119;BMP180;4594;50.994;7.126;2023-05-29T03:54:40;101162.00;;;17.10
9119;BMP180;4594;50.994;7.126;2023-05-29T03:57:05;101161.00;;;17.10
9119;BMP180;4594;50.994;7.126;2023-05-29T03:59:32;101164.00;;;17.10
9119;BMP180;4594;50.994;7.126;2023-05-29T04:01:58;101174.00;;;17.00
9119;BMP180;4594;50.994;7.126;2023-05-29T04:04:23;101171.00;;;17.00
9119;BMP180;4594;50.994;7.126;2023-05-29T04:06:50;101171.00;;;17.00
9119;BMP180;4594;50.994;7.126;2023-05-29T04:09:15;101165.00;;;17.00
9119;BMP180;4594;50.994;7.126;2023-05-29T04:11:42;101172.00;;;17.00
9119;BMP180;4594;50.994;7.126;2023-05-29T04:14:10;101170.00;;;17.00
9119;BMP180;4594;50.994;7.126;2023-05-29T04:16:35;101174.00;;;17.00
9119;BMP180;4594;50.994;7.126;2023-05-29T04:19:01;101166.00;;;17.00
9119;BMP180;4594;50.994;7.126;2023-05-29T04:21:27;101172.00;;;17.00
9119;BMP180;4594;50.994;7.126;2023-05-29T04:23:52;101175.00;;;17.00
9119;BMP180;4594;50.994;7.126;2023-05-29T04:26:21;101183.00;;;17.00
9119;BMP180;4594;50.994;7.126;2023-05-29T04:28:52;101183.00;;;17.10
9119;BMP180;4594;50.994;7.126;2023-05-29T04:31:25;101183.00;;;17.10
9119;BMP180;4594;50.994;7.126;2023-05-29T04:33:55;101192.00;;;17.10
9119;BMP180;4594;50.994;7.126;2023-05-29T04:36:24;101198.00;;;17.20
9119;BMP180;4594;50.994;7.126;2023-05-29T04:38:52;101191.00;;;17.20
9119;BMP180;4594;50.994;7.126;2023-05-29T04:41:19;101196.00;;;17.30
9119;BMP180;4594;50.994;7.126;2023-05-29T04:43:45;101207.00;;;17.30
9119;BMP180;4594;50.994;7.126;2023-05-29T04:46:11;101211.00;;;17.40
9119;BMP180;4594;50.994;7.126;2023-05-29T04:48:40;101223.00;;;17.50
9119;BMP180;4594;50.994;7.126;2023-05-29T04:51:09;101226.00;;;17.50
9119;BMP180;4594;50.994;7.126;2023-05-29T04:53:39;101222.00;;;17.70
9119;BMP180;4594;50.994;7.126;2023-05-29T04:56:06;101221.00;;;17.80
9119;BMP180;4594;50.994;7.126;2023-05-29T04:58:32;101232.00;;;18.00
9119;BMP180;4594;50.994;7.126;2023-05-29T05:00:58;101227.00;;;18.20
9119;BMP180;4594;50.994;7.126;2023-05-29T05:03:24;101233.00;;;18.40
9119;BMP180;4594;50.994;7.126;2023-05-29T05:05:51;101236.00;;;18.60
9119;BMP180;4594;50.994;7.126;2023-05-29T05:08:17;101229.00;;;18.80
9119;BMP180;4594;50.994;7.126;2023-05-29T05:10:43;101222.00;;;19.00
9119;BMP180;4594;50.994;7.126;2023-05-29T05:13:09;101233.00;;;19.30
9119;BMP180;4594;50.994;7.126;2023-05-29T05:15:36;101230.00;;;19.60
9119;BMP180;4594;50.994;7.126;2023-05-29T05:18:02;101227.00;;;19.90
9119;BMP180;4594;50.994;7.126;2023-05-29T05:20:28;101234.00;;;20.30
9119;BMP180;4594;50.994;7.126;2023-05-29T05:22:53;101233.00;;;20.60
9119;BMP180;4594;50.994;7.126;2023-05-29T05:25:19;101237.00;;;21.00
9119;BMP180;4594;50.994;7.126;2023-05-29T05:27:45;101232.00;;;21.30
9119;BMP180;4594;50.994;7.126;2023-05-29T05:30:11;101230.00;;;21.70
9119;BMP180;4594;50.994;7.126;2023-05-29T05:32:38;101237.00;;;22.10
9119;BMP180;4594;50.994;7.126;2023-05-29T05:35:04;101227.00;;;22.40
9119;BMP180;4594;50.994;7.126;2023-05-29T05:37:30;101225.00;;;22.80
9119;BMP180;4594;50.994;7.126;2023-05-29T05:39:56;101223.00;;;23.10
9119;BMP180;4594;50.994;7.126;2023-05-29T05:42:23;101235.00;;;23.40
9119;BMP180;4594;50.994;7.126;2023-05-29T05:44:49;101240.00;;;23.70
9119;BMP180;4594;50.994;7.126;2023-05-29T05:47:15;101238.00;;;24.10
9119;BMP180;4594;50.994;7.126;2023-05-29T05:49:40;101256.00;;;24.60
9119;BMP180;4594;50.994;7.126;2023-05-29T05:52:06;101257.00;;;25.00
9119;BMP180;4594;50.994;7.126;2023-05-29T05:54:32;101260.00;;;25.40
9119;BMP180;4594;50.994;7.126;2023-05-29T05:56:57;101261.00;;;25.70
9119;BMP180;4594;50.994;7.126;2023-05-29T05:59:23;101261.00;;;26.10
9119;BMP180;4594;50.994;7.126;2023-05-29T06:01:49;101262.00;;;26.50
9119;BMP180;4594;50.994;7.126;2023-05-29T06:04:14;101263.00;;;26.90
9119;BMP180;4594;50.994;7.126;2023-05-29T06:06:40;101269.00;;;27.20
9119;BMP180;4594;50.994;7.126;2023-05-29T06:09:06;101266.00;;;27.60
9119;BMP180;4594;50.994;7.126;2023-05-29T06:11:32;101274.00;;;28.00
9119;BMP180;4594;50.994;7.126;2023-05-29T06:13:58;101263.00;;;28.40
9119;BMP180;4594;50.994;7.126;2023-05-29T06:16:24;101270.00;;;28.80
9119;BMP180;4594;50.994;7.126;2023-05-29T06:18:49;101273.00;;;29.10
9119;BMP180;4594;50.994;7.126;2023-05-29T06:21:15;101281.00;;;29.50
9119;BMP180;4594;50.994;7.126;2023-05-29T06:23:41;101282.00;;;29.80
9119;BMP180;4594;50.994;7.126;2023-05-29T06:26:07;101273.00;;;30.00
9119;BMP180;4594;50.994;7.126;2023-05-29T06:28:33;101281.00;;;30.20
9119;BMP180;4594;50.994;7.126;2023-05-29T06:30:58;101282.00;;;30.40
9119;BMP180;4594;50.994;7.126;2023-05-29T06:33:24;101291.00;;;30.60
9119;BMP180;4594;50.994;7.126;2023-05-29T06:35:50;101283.00;;;30.90
9119;BMP180;4594;50.994;7.126;2023-05-29T06:38:16;101285.00;;;31.10
9119;BMP180;4594;50.994;7.126;2023-05-29T06:40:41;101286.00;;;31.40
9119;BMP180;4594;50.994;7.126;2023-05-29T06:43:07;101285.00;;;31.70
9119;BMP180;4594;50.994;7.126;2023-05-29T06:45:35;101292.00;;;31.90
9119;BMP180;4594;50.994;7.126;2023-05-29T06:48:00;101293.00;;;32.20
9119;BMP180;4594;50.994;7.126;2023-05-29T06:50:26;101287.00;;;32.40
9119;BMP180;4594;50.994;7.126;2023-05-29T06:52:52;101287.00;;;32.70
9119;BMP180;4594;50.994;7.126;2023-05-29T06:55:17;101285.00;;;33.00
9119;BMP180;4594;50.994;7.126;2023-05-29T06:57:43;101288.00;;;33.20
9119;BMP180;4594;50.994;7.126;2023-05-29T07:00:10;101289.00;;;33.50
9119;BMP180;4594;50.994;7.126;2023-05-29T07:02:37;101297.00;;;33.70
9119;BMP180;4594;50.994;7.126;2023-05-29T07:05:03;101301.00;;;33.90
9119;BMP180;4594;50.994;7.126;2023-05-29T07:07:29;101293.00;;;34.00
9119;BMP180;4594;50.994;7.126;2023-05-29T07:09:55;101295.00;;;34.10
9119;BMP180;4594;50.994;7.126;2023-05-29T07:12:22;101290.00;;;34.20
9119;BMP180;4594;50.994;7.126;2023-05-29T07:14:48;101289.00;;;34.20
9119;BMP180;4594;50.994;7.126;2023-05-29T07:17:14;101291.00;;;34.40
9119;BMP180;4594;50.994;7.126;2023-05-29T07:19:41;101288.00;;;34.60
9119;BMP180;4594;50.994;7.126;2023-05-29T07:22:06;101293.00;;;34.80
9119;BMP180;4594;50.994;7.126;2023-05-29T07:24:32;101293.00;;;35.00
9119;BMP180;4594;50.994;7.126;2023-05-29T07:26:58;101290.00;;;35.20
9119;BMP180;4594;50.994;7.126;2023-05-29T07:29:24;101285.00;;;35.50
9119;BMP180;4594;50.994;7.126;2023-05-29T07:31:51;101288.00;;;35.80
9119;BMP180;4594;50.994;7.126;2023-05-29T07:34:17;101296.00;;;36.10
9119;BMP180;4594;50.994;7.126;2023-05-29T07:37:04;101302.00;;;36.30
9119;BMP180;4594;50.994;7.126;2023-05-29T07:39:34;101302.00;;;36.70
9119;BMP180;4594;50.994;7.126;2023-05-29T07:42:01;101299.00;;;37.00
9119;BMP180;4594;50.994;7.126;2023-05-29T07:44:27;101306.00;;;37.30
9119;BMP180;4594;50.994;7.126;2023-05-29T07:46:53;101303.00;;;37.50
9119;BMP180;4594;50.994;7.126;2023-05-29T07:49:22;101306.00;;;37.80
9119;BMP180;4594;50.994;7.126;2023-05-29T07:51:48;101310.00;;;38.00
9119;BMP180;4594;50.994;7.126;2023-05-29T07:54:13;101302.00;;;38.20
9119;BMP180;4594;50.994;7.126;2023-05-29T07:56:42;101311.00;;;38.40
9119;BMP180;4594;50.994;7.126;2023-05-29T07:59:08;101307.00;;;38.40
9119;BMP180;4594;50.994;7.126;2023-05-29T08:01:35;101299.00;;;38.50
9119;BMP180;4594;50.994;7.126;2023-05-29T08:04:01;101298.00;;;38.60
9119;BMP180;4594;50.994;7.126;2023-05-29T08:06:26;101301.00;;;38.80
9119;BMP180;4594;50.994;7.126;2023-05-29T08:08:52;101302.00;;;39.00
9119;BMP180;4594;50.994;7.126;2023-05-29T08:11:19;101313.00;;;39.20
9119;BMP180;4594;50.994;7.126;2023-05-29T08:13:45;101304.00;;;39.40
9119;BMP180;4594;50.994;7.126;2023-05-29T08:16:11;101320.00;;;39.50
9119;BMP180;4594;50.994;7.126;2023-05-29T08:18:39;101320.00;;;39.60
9119;BMP180;4594;50.994;7.126;2023-05-29T08:21:05;101317.00;;;39.80
9119;BMP180;4594;50.994;7.126;2023-05-29T08:23:32;101319.00;;;40.00
9119;BMP180;4594;50.994;7.126;2023-05-29T08:25:57;101322.00;;;40.10
9119;BMP180;4594;50.994;7.126;2023-05-29T08:28:23;101308.00;;;40.20
9119;BMP180;4594;50.994;7.126;2023-05-29T08:30:49;101294.00;;;40.50
9119;BMP180;4594;50.994;7.126;2023-05-29T08:33:15;101312.00;;;40.70
9119;BMP180;4594;50.994;7.126;2023-05-29T08:35:41;101306.00;;;40.90
9119;BMP180;4594;50.994;7.126;2023-05-29T08:38:06;101300.00;;;41.20
9119;BMP180;4594;50.994;7.126;2023-05-29T08:40:32;101304.00;;;41.50
9119;BMP180;4594;50.994;7.126;2023-05-29T08:43:21;101309.00;;;41.70
9119;BMP180;4594;50.994;7.126;2023-05-29T08:45:53;101312.00;;;41.70
9119;BMP180;4594;50.994;7.126;2023-05-29T08:48:23;101302.00;;;41.70
9119;BMP180;4594;50.994;7.126;2023-05-29T08:50:55;101318.00;;;41.80
9119;BMP180;4594;50.994;7.126;2023-05-29T08:53:22;101320.00;;;42.00
9119;BMP180;4594;50.994;7.126;2023-05-29T08:55:50;101298.00;;;42.20
9119;BMP180;4594;50.994;7.126;2023-05-29T08:58:19;101303.00;;;42.50
9119;BMP180;4594;50.994;7.126;2023-05-29T09:00:47;101304.00;;;42.90
9119;BMP180;4594;50.994;7.126;2023-05-29T09:03:14;101312.00;;;43.20
9119;BMP180;4594;50.994;7.126;2023-05-29T09:05:41;101313.00;;;43.50
9119;BMP180;4594;50.994;7.126;2023-05-29T09:08:09;101306.00;;;43.50
9119;BMP180;4594;50.994;7.126;2023-05-29T09:10:40;101299.00;;;43.60
9119;BMP180;4594;50.994;7.126;2023-05-29T09:13:06;101301.00;;;43.80
9119;BMP180;4594;50.994;7.126;2023-05-29T09:15:31;101297.00;;;44.10
9119;BMP180;4594;50.994;7.126;2023-05-29T09:17:57;101300.00;;;44.30
9119;BMP180;4594;50.994;7.126;2023-05-29T09:20:24;101301.00;;;44.50
9119;BMP180;4594;50.994;7.126;2023-05-29T09:23:04;101300.00;;;44.60
9119;BMP180;4594;50.994;7.126;2023-05-29T09:25:33;101297.00;;;44.70
9119;BMP180;4594;50.994;7.126;2023-05-29T09:30:46;101293.00;;;45.00
9119;BMP180;4594;50.994;7.126;2023-05-29T09:33:14;101301.00;;;45.10
9119;BMP180;4594;50.994;7.126;2023-05-29T09:35:45;101290.00;;;45.10
9119;BMP180;4594;50.994;7.126;2023-05-29T09:38:18;101307.00;;;45.10
9119;BMP180;4594;50.994;7.126;2023-05-29T09:40:44;101306.00;;;45.10
9119;BMP180;4594;50.994;7.126;2023-05-29T09:43:18;101303.00;;;45.00
9119;BMP180;4594;50.994;7.126;2023-05-29T09:45:47;101302.00;;;45.00
9119;BMP180;4594;50.994;7.126;2023-05-29T09:48:18;101313.00;;;44.90
9119;BMP180;4594;50.994;7.126;2023-05-29T09:50:45;101309.00;;;45.00
9119;BMP180;4594;50.994;7.126;2023-05-29T09:53:21;101307.00;;;45.10
9119;BMP180;4594;50.994;7.126;2023-05-29T09:55:54;101315.00;;;45.20
9119;BMP180;4594;50.994;7.126;2023-05-29T09:58:22;101311.00;;;45.10
9119;BMP180;4594;50.994;7.126;2023-05-29T10:00:50;101308.00;;;45.00
9119;BMP180;4594;50.994;7.126;2023-05-29T10:03:17;101321.00;;;44.90
9119;BMP180;4594;50.994;7.126;2023-05-29T10:05:49;101302.00;;;44.70
9119;BMP180;4594;50.994;7.126;2023-05-29T10:08:18;101313.00;;;44.60
9119;BMP180;4594;50.994;7.126;2023-05-29T10:10:51;101318.00;;;44.60
9119;BMP180;4594;50.994;7.126;2023-05-29T10:13:22;101302.00;;;44.60
9119;BMP180;4594;50.994;7.126;2023-05-29T10:15:51;101320.00;;;44.60
9119;BMP180;4594;50.994;7.126;2023-05-29T10:18:37;101312.00;;;44.40
9119;BMP180;4594;50.994;7.126;2023-05-29T10:21:06;101315.00;;;44.30
9119;BMP180;4594;50.994;7.126;2023-05-29T10:23:36;101321.00;;;44.20
9119;BMP180;4594;50.994;7.126;2023-05-29T10:26:11;101311.00;;;44.10
9119;BMP180;4594;50.994;7.126;2023-05-29T10:28:49;101312.00;;;44.10
9119;BMP180;4594;50.994;7.126;2023-05-29T10:34:18;101314.00;;;44.20
9119;BMP180;4594;50.994;7.126;2023-05-29T10:37:04;101312.00;;;44.20
9119;BMP180;4594;50.994;7.126;2023-05-29T10:39:32;101319.00;;;44.30
9119;BMP180;4594;50.994;7.126;2023-05-29T10:41:59;101320.00;;;44.40
9119;BMP180;4594;50.994;7.126;2023-05-29T10:49:25;101309.00;;;43.90
9119;BMP180;4594;50.994;7.126;2023-05-29T10:51:51;101315.00;;;43.70
9119;BMP180;4594;50.994;7.126;2023-05-29T10:54:23;101301.00;;;43.50
9119;BMP180;4594;50.994;7.126;2023-05-29T10:56:57;101326.00;;;43.40
9119;BMP180;4594;50.994;7.126;2023-05-29T10:59:23;101320.00;;;43.20
9119;BMP180;4594;50.994;7.126;2023-05-29T11:01:56;101319.00;;;43.00
9119;BMP180;4594;50.994;7.126;2023-05-29T11:06:52;101318.00;;;42.50
9119;BMP180;4594;50.994;7.126;2023-05-29T11:09:38;101306.00;;;42.20
9119;BMP180;4594;50.994;7.126;2023-05-29T11:12:25;101317.00;;;42.10
9119;BMP180;4594;50.994;7.126;2023-05-29T11:15:05;101311.00;;;42.10
9119;BMP180;4594;50.994;7.126;2023-05-29T11:20:08;101310.00;;;42.10
9119;BMP180;4594;50.994;7.126;2023-05-29T11:25:24;101307.00;;;41.70
9119;BMP180;4594;50.994;7.126;2023-05-29T11:27:50;101309.00;;;41.50
9119;BMP180;4594;50.994;7.126;2023-05-29T11:30:18;101287.00;;;41.10
9119;BMP180;4594;50.994;7.126;2023-05-29T11:32:46;101296.00;;;40.50
9119;BMP180;4594;50.994;7.126;2023-05-29T11:35:21;101302.00;;;39.40
9119;BMP180;4594;50.994;7.126;2023-05-29T11:37:48;101308.00;;;38.40
9119;BMP180;4594;50.994;7.126;2023-05-29T11:40:15;101291.00;;;37.40
9119;BMP180;4594;50.994;7.126;2023-05-29T11:42:42;101306.00;;;36.60
9119;BMP180;4594;50.994;7.126;2023-05-29T11:45:22;101299.00;;;35.70
9119;BMP180;4594;50.994;7.126;2023-05-29T11:47:57;101318.00;;;35.00
9119;BMP180;4594;50.994;7.126;2023-05-29T11:50:29;101310.00;;;34.50
9119;BMP180;4594;50.994;7.126;2023-05-29T11:52:57;101300.00;;;34.00
9119;BMP180;4594;50.994;7.126;2023-05-29T11:55:24;101305.00;;;33.60
9119;BMP180;4594;50.994;7.126;2023-05-29T11:57:56;101288.00;;;33.30
9119;BMP180;4594;50.994;7.126;2023-05-29T12:00:23;101303.00;;;33.00
9119;BMP180;4594;50.994;7.126;2023-05-29T12:02:51;101284.00;;;32.80
9119;BMP180;4594;50.994;7.126;2023-05-29T12:05:18;101286.00;;;32.60
9119;BMP180;4594;50.994;7.126;2023-05-29T12:07:54;101285.00;;;32.40
9119;BMP180;4594;50.994;7.126;2023-05-29T12:10:23;101291.00;;;32.30
9119;BMP180;4594;50.994;7.126;2023-05-29T12:12:56;101278.00;;;32.20
9119;BMP180;4594;50.994;7.126;2023-05-29T12:15:22;101281.00;;;32.00
9119;BMP180;4594;50.994;7.126;2023-05-29T12:17:53;101280.00;;;31.90
9119;BMP180;4594;50.994;7.126;2023-05-29T12:20:23;101273.00;;;31.80
9119;BMP180;4594;50.994;7.126;2023-05-29T12:22:52;101267.00;;;31.70
9119;BMP180;4594;50.994;7.126;2023-05-29T12:25:20;101269.00;;;31.60
9119;BMP180;4594;50.994;7.126;2023-05-29T12:27:47;101261.00;;;31.40
9119;BMP180;4594;50.994;7.126;2023-05-29T12:30:20;101281.00;;;31.20
9119;BMP180;4594;50.994;7.126;2023-05-29T12:32:50;101276.00;;;31.10
9119;BMP180;4594;50.994;7.126;2023-05-29T12:35:27;101281.00;;;31.00
9119;BMP180;4594;50.994;7.126;2023-05-29T12:38:05;101283.00;;;30.90
9119;BMP180;4594;50.994;7.126;2023-05-29T12:40:34;101284.00;;;30.60
9119;BMP180;4594;50.994;7.126;2023-05-29T12:43:05;101265.00;;;30.50
9119;BMP180;4594;50.994;7.126;2023-05-29T12:45:33;101291.00;;;30.30
9119;BMP180;4594;50.994;7.126;2023-05-29T12:50:35;101290.00;;;30.00
9119;BMP180;4594;50.994;7.126;2023-05-29T12:53:11;101277.00;;;29.80
9119;BMP180;4594;50.994;7.126;2023-05-29T12:55:42;101287.00;;;29.70
9119;BMP180;4594;50.994;7.126;2023-05-29T12:58:10;101270.00;;;29.60
9119;BMP180;4594;50.994;7.126;2023-05-29T13:00:38;101281.00;;;29.50
9119;BMP180;4594;50.994;7.126;2023-05-29T13:03:04;101279.00;;;29.40
9119;BMP180;4594;50.994;7.126;2023-05-29T13:05:31;101281.00;;;29.30
9119;BMP180;4594;50.994;7.126;2023-05-29T13:07:58;101287.00;;;29.20
9119;BMP180;4594;50.994;7.126;2023-05-29T13:10:26;101287.00;;;29.10
9119;BMP180;4594;50.994;7.126;2023-05-29T13:12:55;101285.00;;;29.00
9119;BMP180;4594;50.994;7.126;2023-05-29T13:15:24;101278.00;;;28.90
9119;BMP180;4594;50.994;7.126;2023-05-29T13:17:51;101288.00;;;28.90
9119;BMP180;4594;50.994;7.126;2023-05-29T13:20:18;101287.00;;;28.80
9119;BMP180;4594;50.994;7.126;2023-05-29T13:22:46;101275.00;;;28.70
9119;BMP180;4594;50.994;7.126;2023-05-29T13:25:16;101290.00;;;28.60
9119;BMP180;4594;50.994;7.126;2023-05-29T13:27:45;101287.00;;;28.60
9119;BMP180;4594;50.994;7.126;2023-05-29T13:30:12;101267.00;;;28.50
9119;BMP180;4594;50.994;7.126;2023-05-29T13:32:39;101282.00;;;28.50
9119;BMP180;4594;50.994;7.126;2023-05-29T13:35:05;101287.00;;;28.40
9119;BMP180;4594;50.994;7.126;2023-05-29T13:37:31;101284.00;;;28.40
9119;BMP180;4594;50.994;7.126;2023-05-29T13:39:57;101281.00;;;28.30
9119;BMP180;4594;50.994;7.126;2023-05-29T13:42:23;101268.00;;;28.30
9119;BMP180;4594;50.994;7.126;2023-05-29T13:44:49;101272.00;;;28.30
9119;BMP180;4594;50.994;7.126;2023-05-29T13:47:15;101282.00;;;28.30
9119;BMP180;4594;50.994;7.126;2023-05-29T13:49:42;101275.00;;;28.20
9119;BMP180;4594;50.994;7.126;2023-05-29T13:52:08;101272.00;;;28.10
9119;BMP180;4594;50.994;7.126;2023-05-29T13:54:34;101266.00;;;28.00
9119;BMP180;4594;50.994;7.126;2023-05-29T13:57:04;101283.00;;;27.90
9119;BMP180;4594;50.994;7.126;2023-05-29T13:59:34;101278.00;;;27.90
9119;BMP180;4594;50.994;7.126;2023-05-29T14:02:01;101264.00;;;27.80
9119;BMP180;4594;50.994;7.126;2023-05-29T14:04:29;101260.00;;;27.80
9119;BMP180;4594;50.994;7.126;2023-05-29T14:06:55;101261.00;;;27.80
9119;BMP180;4594;50.994;7.126;2023-05-29T14:09:22;101265.00;;;27.70
9119;BMP180;4594;50.994;7.126;2023-05-29T14:11:58;101279.00;;;27.70
9119;BMP180;4594;50.994;7.126;2023-05-29T14:14:25;101270.00;;;27.70
9119;BMP180;4594;50.994;7.126;2023-05-29T14:16:51;101273.00;;;27.70
9119;BMP180;4594;50.994;7.126;2023-05-29T14:19:18;101266.00;;;27.60
9119;BMP180;4594;50.994;7.126;2023-05-29T14:21:45;101270.00;;;27.60
9119;BMP180;4594;50.994;7.126;2023-05-29T14:24:11;101252.00;;;27.50
9119;BMP180;4594;50.994;7.126;2023-05-29T14:26:37;101271.00;;;27.50
9119;BMP180;4594;50.994;7.126;2023-05-29T14:29:03;101268.00;;;27.40
9119;BMP180;4594;50.994;7.126;2023-05-29T14:31:29;101273.00;;;27.30
9119;BMP180;4594;50.994;7.126;2023-05-29T14:33:54;101247.00;;;27.30
9119;BMP180;4594;50.994;7.126;2023-05-29T14:36:20;101278.00;;;27.20
9119;BMP180;4594;50.994;7.126;2023-05-29T14:38:46;101269.00;;;27.20
9119;BMP180;4594;50.994;7.126;2023-05-29T14:41:13;101261.00;;;27.10
9119;BMP180;4594;50.994;7.126;2023-05-29T14:43:42;101269.00;;;27.10
9119;BMP180;4594;50.994;7.126;2023-05-29T14:46:09;101258.00;;;27.00
9119;BMP180;4594;50.994;7.126;2023-05-29T14:48:34;101262.00;;;26.90
9119;BMP180;4594;50.994;7.126;2023-05-29T14:51:00;101269.00;;;26.90
9119;BMP180;4594;50.994;7.126;2023-05-29T14:53:26;101255.00;;;26.90